createdAt,value
2023-02-09T00:01:21.705Z,98503.22
2023-02-09T00:03:51.162Z,98499.97
2023-02-09T00:06:21.446Z,98506.56
2023-02-09T00:08:50.642Z,98500.31
2023-02-09T00:11:41.858Z,98511.78
2023-02-09T00:14:10.395Z,98498.25
2023-02-09T00:16:41.441Z,98513.75
2023-02-09T00:19:10.696Z,98510.25
2023-02-09T00:21:39.797Z,98505.44
2023-02-09T00:24:10.913Z,98504.28
2023-02-09T00:26:40.182Z,98500.69
2023-02-09T00:29:12.205Z,98504.13
2023-02-09T00:31:42.599Z,98498.22
2023-02-09T00:34:12.317Z,98498.66
2023-02-09T00:36:41.388Z,98500.19
2023-02-09T00:39:10.674Z,98505.13
2023-02-09T00:41:57.094Z,98501.50
2023-02-09T00:44:25.957Z,98501.50
2023-02-09T00:46:57.015Z,98505.94
2023-02-09T00:49:26.004Z,98508.09
2023-02-09T00:51:55.656Z,98511.06
2023-02-09T00:54:26.664Z,98508.72
2023-02-09T00:57:05.606Z,98514.81
2023-02-09T01:00:06.158Z,98520.13
2023-02-09T01:02:36.494Z,98512.72
2023-02-09T01:05:05.788Z,98513.72
2023-02-09T01:07:35.189Z,98507.09
2023-02-09T01:10:04.597Z,98516.34
2023-02-09T01:12:33.585Z,98514.75
2023-02-09T01:15:03.087Z,98515.75
2023-02-09T01:17:32.353Z,98515.66
2023-02-09T01:20:02.875Z,98508.59
2023-02-09T01:22:35.408Z,98511.75
2023-02-09T01:25:04.796Z,98502.41
2023-02-09T01:27:39.124Z,98503.09
2023-02-09T01:30:08.903Z,98502.91
2023-02-09T01:32:37.966Z,98494.56
2023-02-09T01:35:08.744Z,98485.66
2023-02-09T01:37:39.381Z,98481.47
2023-02-09T01:40:13.204Z,98473.88
2023-02-09T01:42:42.510Z,98483.94
2023-02-09T01:45:22.770Z,98485.06
2023-02-09T01:47:54.238Z,98478.84
2023-02-09T01:50:25.000Z,98476.53
2023-02-09T01:52:54.419Z,98468.47
2023-02-09T01:55:27.084Z,98472.47
2023-02-09T01:57:58.378Z,98472.78
2023-02-09T02:00:27.380Z,98468.34
2023-02-09T02:02:59.364Z,98460.47
2023-02-09T02:05:33.857Z,98454.22
2023-02-09T02:08:06.194Z,98461.44
2023-02-09T02:10:35.418Z,98464.72
2023-02-09T02:13:04.824Z,98462.97
2023-02-09T02:15:41.818Z,98456.09
2023-02-09T02:18:21.956Z,98466.13
2023-02-09T02:21:17.501Z,98466.78
2023-02-09T02:23:51.095Z,98459.06
2023-02-09T02:26:49.372Z,98456.88
2023-02-09T02:29:30.416Z,98454.91
2023-02-09T02:32:12.016Z,98450.69
2023-02-09T02:34:48.304Z,98442.84
2023-02-09T02:37:28.156Z,98444.97
2023-02-09T02:40:04.017Z,98448.78
2023-02-09T02:42:53.171Z,98442.72
2023-02-09T02:45:32.702Z,98440.59
2023-02-09T02:48:10.618Z,98445.25
2023-02-09T02:50:43.638Z,98438.69
2023-02-09T02:53:14.200Z,98438.69
2023-02-09T02:55:44.345Z,98437.72
2023-02-09T02:58:14.382Z,98433.28
2023-02-09T03:00:46.009Z,98434.13
2023-02-09T03:03:18.490Z,98434.13
2023-02-09T03:05:48.845Z,98428.41
2023-02-09T03:08:21.430Z,98428.88
2023-02-09T03:10:50.312Z,98433.28
2023-02-09T03:13:34.839Z,98438.09
2023-02-09T03:16:14.317Z,98439.72
2023-02-09T03:18:51.394Z,98425.25
2023-02-09T03:21:25.817Z,98434.63
2023-02-09T03:23:58.132Z,98438.38
2023-02-09T03:26:40.494Z,98434.94
2023-02-09T03:29:10.509Z,98432.81
2023-02-09T03:31:40.079Z,98422.31
2023-02-09T03:34:12.574Z,98433.97
2023-02-09T03:36:43.431Z,98434.78
2023-02-09T03:39:12.537Z,98436.41
2023-02-09T03:41:41.318Z,98434.63
2023-02-09T03:44:28.025Z,98447.00
2023-02-09T03:47:01.017Z,98447.81
2023-02-09T03:49:33.711Z,98439.13
2023-02-09T03:52:13.854Z,98441.75
2023-02-09T03:54:42.727Z,98439.97
2023-02-09T03:57:11.944Z,98438.81
2023-02-09T03:59:40.660Z,98444.09
2023-02-09T04:02:14.530Z,98438.00
2023-02-09T04:04:47.626Z,98442.13
2023-02-09T04:07:16.821Z,98442.47
2023-02-09T04:09:46.023Z,98437.22
2023-02-09T04:12:15.333Z,98440.16
2023-02-09T04:14:44.553Z,98449.03
2023-02-09T04:17:13.639Z,98447.38
2023-02-09T04:19:42.738Z,98444.75
2023-02-09T04:22:13.133Z,98441.81
2023-02-09T04:24:46.045Z,98437.53
2023-02-09T04:27:14.917Z,98438.56
2023-02-09T04:29:44.637Z,98434.91
2023-02-09T04:32:17.371Z,98438.88
2023-02-09T04:34:46.493Z,98439.22
2023-02-09T04:37:16.895Z,98437.56
2023-02-09T04:39:46.239Z,98443.13
2023-02-09T04:42:14.928Z,98444.47
2023-02-09T04:44:43.907Z,98439.88
2023-02-09T04:47:12.935Z,98450.19
2023-02-09T04:49:42.778Z,98436.91
2023-02-09T04:52:11.577Z,98440.53
2023-02-09T04:54:42.107Z,98446.09
2023-02-09T04:57:28.448Z,98447.09
2023-02-09T04:59:57.658Z,98448.72
2023-02-09T05:02:26.623Z,98448.72
2023-02-09T05:04:58.524Z,98454.28
2023-02-09T05:07:27.782Z,98463.47
2023-02-09T05:09:58.223Z,98453.28
2023-02-09T05:12:27.214Z,98464.88
2023-02-09T05:14:59.274Z,98465.19
2023-02-09T05:17:28.178Z,98468.56
2023-02-09T05:19:57.057Z,98466.19
2023-02-09T05:22:25.930Z,98470.25
2023-02-09T05:24:55.385Z,98467.34
2023-02-09T05:27:25.687Z,98472.63
2023-02-09T05:29:54.973Z,98472.13
2023-02-09T05:32:26.427Z,98471.34
2023-02-09T05:34:55.756Z,98477.03
2023-02-09T05:37:24.949Z,98477.50
2023-02-09T05:39:54.321Z,98472.28
2023-02-09T05:42:23.356Z,98468.03
2023-02-09T05:44:53.839Z,98466.41
2023-02-09T05:47:24.884Z,98468.69
2023-02-09T05:49:53.817Z,98473.59
2023-02-09T05:52:23.223Z,98473.28
2023-02-09T05:54:52.491Z,98474.28
2023-02-09T05:57:21.822Z,98478.03
2023-02-09T05:59:50.705Z,98482.78
2023-02-09T06:02:21.164Z,98494.50
2023-02-09T06:04:50.103Z,98494.63
2023-02-09T06:07:19.080Z,98497.38
2023-02-09T06:09:50.308Z,98501.88
2023-02-09T06:12:19.623Z,98504.28
2023-02-09T06:14:48.455Z,98504.84
2023-02-09T06:17:17.435Z,98509.13
2023-02-09T06:19:47.674Z,98504.75
2023-02-09T06:22:16.670Z,98507.56
2023-02-09T06:24:45.682Z,98511.81
2023-02-09T06:27:18.927Z,98517.72
2023-02-09T06:29:50.950Z,98520.66
2023-02-09T06:32:20.229Z,98519.31
2023-02-09T06:34:54.269Z,98524.72
2023-02-09T06:37:23.026Z,98523.13
2023-02-09T06:39:52.427Z,98528.38
2023-02-09T06:42:21.514Z,98529.34
2023-02-09T06:44:50.527Z,98529.81
2023-02-09T06:47:19.616Z,98533.06
2023-02-09T06:49:51.480Z,98541.91
2023-02-09T06:52:22.013Z,98536.25
2023-02-09T06:54:51.106Z,98532.53
2023-02-09T06:57:20.114Z,98538.78
2023-02-09T06:59:49.484Z,98536.81
2023-02-09T07:02:22.262Z,98540.78
2023-02-09T07:04:51.288Z,98547.41
2023-02-09T07:07:21.510Z,98553.31
2023-02-09T07:09:50.279Z,98544.50
2023-02-09T07:12:22.262Z,98554.78
2023-02-09T07:14:51.245Z,98551.06
2023-02-09T07:17:20.142Z,98551.56
2023-02-09T07:19:49.752Z,98553.72
2023-02-09T07:22:18.847Z,98552.78
2023-02-09T07:24:49.254Z,98554.06
2023-02-09T07:27:18.265Z,98547.22
2023-02-09T07:29:47.770Z,98545.78
2023-02-09T07:32:19.493Z,98537.44
2023-02-09T07:34:50.631Z,98537.09
2023-02-09T07:37:20.181Z,98551.38
2023-02-09T07:39:50.592Z,98547.97
2023-02-09T07:42:20.346Z,98548.16
2023-02-09T07:45:07.516Z,98550.63
2023-02-09T07:47:43.426Z,98546.56
2023-02-09T07:50:12.384Z,98550.50
2023-02-09T07:52:41.304Z,98547.72
2023-02-09T07:55:11.681Z,98557.25
2023-02-09T07:57:40.905Z,98556.41
2023-02-09T08:00:14.508Z,98563.63
2023-02-09T08:02:47.469Z,98564.63
2023-02-09T08:05:19.874Z,98551.53
2023-02-09T08:07:48.861Z,98556.94
2023-02-09T08:10:20.691Z,98568.25
2023-02-09T08:13:02.932Z,98555.63
2023-02-09T08:15:39.397Z,98571.22
2023-02-09T08:18:12.942Z,98566.78
2023-02-09T08:20:42.388Z,98563.50
2023-02-09T08:23:39.496Z,98561.38
2023-02-09T08:26:13.269Z,98561.69
2023-02-09T08:28:45.009Z,98564.50
2023-02-09T08:31:17.136Z,98553.66
2023-02-09T08:33:52.685Z,98560.53
2023-02-09T08:36:22.212Z,98561.84
2023-02-09T08:38:50.903Z,98565.47
2023-02-09T08:41:21.979Z,98566.09
2023-02-09T08:43:51.810Z,98558.56
2023-02-09T08:46:21.066Z,98554.09
2023-02-09T08:48:59.297Z,98551.78
2023-02-09T08:51:27.992Z,98546.88
2023-02-09T08:53:56.772Z,98548.47
2023-02-09T08:56:27.043Z,98544.03
2023-02-09T08:58:56.298Z,98542.75
2023-02-09T09:01:25.124Z,98539.31
2023-02-09T09:03:54.224Z,98535.03
2023-02-09T09:06:23.264Z,98545.03
2023-02-09T09:08:52.579Z,98541.09
2023-02-09T09:11:21.430Z,98541.41
2023-02-09T09:13:53.039Z,98536.28
2023-02-09T09:16:23.472Z,98536.75
2023-02-09T09:18:52.371Z,98539.00
2023-02-09T09:21:21.505Z,98535.03
2023-02-09T09:23:50.435Z,98532.91
2023-02-09T09:26:19.352Z,98534.69
2023-02-09T09:28:52.358Z,98539.91
2023-02-09T09:31:21.625Z,98542.44
2023-02-09T09:33:50.958Z,98545.69
2023-02-09T09:36:20.794Z,98550.78
2023-02-09T09:38:49.830Z,98550.53
2023-02-09T09:41:22.324Z,98558.06
2023-02-09T09:43:52.938Z,98557.38
2023-02-09T09:46:24.039Z,98558.44
2023-02-09T09:48:54.303Z,98563.53
2023-02-09T09:51:27.593Z,98565.75
2023-02-09T09:53:57.917Z,98565.41
2023-02-09T09:56:27.352Z,98565.34
2023-02-09T09:58:58.561Z,98564.38
2023-02-09T10:01:28.760Z,98575.75
2023-02-09T10:03:58.697Z,98576.06
2023-02-09T10:06:33.862Z,98571.88
2023-02-09T10:09:05.650Z,98574.19
2023-02-09T10:11:39.907Z,98565.19
2023-02-09T10:14:11.837Z,98572.31
2023-02-09T10:16:40.810Z,98568.56
2023-02-09T10:19:19.386Z,98563.22
2023-02-09T10:21:49.071Z,98570.88
2023-02-09T10:24:23.634Z,98568.31
2023-02-09T10:27:09.042Z,98568.03
2023-02-09T10:29:39.239Z,98560.03
2023-02-09T10:32:16.394Z,98570.75
2023-02-09T10:34:48.373Z,98564.00
2023-02-09T10:37:26.815Z,98561.25
2023-02-09T10:40:00.608Z,98551.13
2023-02-09T10:42:31.298Z,98546.31
2023-02-09T10:45:08.600Z,98539.81
2023-02-09T10:47:37.186Z,98543.94
2023-02-09T10:50:17.265Z,98536.56
2023-02-09T10:52:56.471Z,98543.50
2023-02-09T10:55:29.805Z,98532.28
2023-02-09T10:58:19.471Z,98519.88
2023-02-09T11:00:54.181Z,98516.91
2023-02-09T11:03:25.497Z,98516.91
2023-02-09T11:06:02.455Z,98514.00
2023-02-09T11:08:40.948Z,98509.66
2023-02-09T11:11:24.760Z,98506.69
2023-02-09T11:13:53.772Z,98504.06
2023-02-09T11:16:39.480Z,98495.19
2023-02-09T11:19:14.594Z,98503.34
2023-02-09T11:21:55.717Z,98494.84
2023-02-09T11:24:31.948Z,98502.19
2023-02-09T11:27:04.568Z,98497.13
2023-02-09T11:29:38.023Z,98501.03
2023-02-09T11:32:13.785Z,98501.09
2023-02-09T11:35:09.201Z,98505.59
2023-02-09T11:37:41.823Z,98500.09
2023-02-09T11:40:23.464Z,98497.25
2023-02-09T11:43:02.993Z,98495.44
2023-02-09T11:45:35.244Z,98480.84
2023-02-09T11:48:10.743Z,98484.97
2023-02-09T11:50:44.857Z,98482.53
2023-02-09T11:53:21.665Z,98477.50
2023-02-09T11:55:53.789Z,98481.28
2023-02-09T11:58:34.562Z,98478.47
2023-02-09T12:01:15.593Z,98477.22
2023-02-09T12:03:58.262Z,98480.13
2023-02-09T12:06:26.968Z,98479.31
2023-02-09T12:09:02.480Z,98477.50
2023-02-09T12:11:43.629Z,98476.38
2023-02-09T12:14:37.110Z,98475.03
2023-02-09T12:17:09.696Z,98474.84
2023-02-09T12:19:41.494Z,98472.84
2023-02-09T12:22:49.882Z,98468.81
2023-02-09T12:25:34.170Z,98456.59
2023-02-09T12:28:13.030Z,98461.91
2023-02-09T12:31:04.879Z,98457.44
2023-02-09T12:33:34.846Z,98454.53
2023-02-09T12:36:07.195Z,98455.38
2023-02-09T12:38:51.619Z,98450.06
2023-02-09T12:41:23.711Z,98449.69
2023-02-09T12:43:55.300Z,98443.13
2023-02-09T12:46:26.744Z,98443.34
2023-02-09T12:49:07.320Z,98448.25
2023-02-09T12:51:54.409Z,98438.25
2023-02-09T12:54:47.515Z,98430.06
2023-02-09T12:57:52.146Z,98429.06
2023-02-09T13:00:33.953Z,98425.16
2023-02-09T13:03:12.177Z,98434.16
2023-02-09T13:05:44.743Z,98433.72
2023-02-09T13:08:35.072Z,98437.38
2023-02-09T13:11:07.905Z,98434.91
2023-02-09T13:13:45.112Z,98432.63
2023-02-09T13:16:52.229Z,98425.06
2023-02-09T13:19:42.544Z,98424.25
2023-02-09T13:22:26.713Z,98427.06
2023-02-09T13:25:00.476Z,98434.81
2023-02-09T13:27:30.076Z,98429.91
2023-02-09T13:30:00.110Z,98423.31
2023-02-09T13:32:37.949Z,98425.13
2023-02-09T13:35:13.533Z,98417.63
2023-02-09T13:37:47.806Z,98426.19
2023-02-09T13:40:20.366Z,98433.91
2023-02-09T13:42:54.731Z,98435.16
2023-02-09T13:45:24.979Z,98436.31
2023-02-09T13:47:53.963Z,98435.47
2023-02-09T13:50:24.460Z,98425.75
2023-02-09T13:52:53.212Z,98431.69
2023-02-09T13:55:24.954Z,98427.38
2023-02-09T13:57:58.777Z,98424.28
2023-02-09T14:00:29.335Z,98434.69
2023-02-09T14:03:03.124Z,98422.44
2023-02-09T14:05:36.837Z,98425.63
2023-02-09T14:08:05.764Z,98417.59
2023-02-09T14:10:35.979Z,98424.25
2023-02-09T14:13:05.947Z,98425.19
2023-02-09T14:15:56.042Z,98412.69
2023-02-09T14:18:33.313Z,98412.69
2023-02-09T14:21:04.587Z,98419.19
2023-02-09T14:23:35.875Z,98421.34
2023-02-09T14:26:07.137Z,98421.16
2023-02-09T14:28:36.437Z,98421.16
2023-02-09T14:31:07.393Z,98420.00
2023-02-09T14:33:38.426Z,98414.94
2023-02-09T14:36:07.720Z,98411.59
2023-02-09T14:38:38.704Z,98423.47
2023-02-09T14:41:36.519Z,98421.03
2023-02-09T14:44:18.816Z,98421.19
2023-02-09T14:46:49.476Z,98427.13
2023-02-09T14:49:18.538Z,98428.69
2023-02-09T14:51:47.850Z,98420.88
2023-02-09T14:54:27.576Z,98423.69
2023-02-09T14:56:58.717Z,98429.88
2023-02-09T14:59:27.110Z,98423.63
2023-02-09T15:01:57.691Z,98411.75
2023-02-09T15:04:25.907Z,98411.53
2023-02-09T15:07:01.998Z,98418.13
2023-02-09T15:09:37.754Z,98421.53
2023-02-09T15:12:08.300Z,98409.81
2023-02-09T15:14:41.474Z,98414.88
2023-02-09T15:17:17.886Z,98408.41
2023-02-09T15:19:47.108Z,98418.47
2023-02-09T15:22:16.680Z,98419.16
2023-02-09T15:24:45.931Z,98424.06
2023-02-09T15:27:25.766Z,98416.91
2023-02-09T15:29:54.718Z,98420.06
2023-02-09T15:32:24.217Z,98423.63
2023-02-09T15:34:53.302Z,98420.38
2023-02-09T15:37:23.851Z,98422.47
2023-02-09T15:39:56.850Z,98423.78
2023-02-09T15:42:44.196Z,98417.66
2023-02-09T15:45:34.901Z,98428.38
2023-02-09T15:48:03.381Z,98433.91
2023-02-09T15:50:32.960Z,98425.84
2023-02-09T15:53:02.250Z,98423.41
2023-02-09T15:55:31.193Z,98430.13
2023-02-09T15:58:00.843Z,98437.09
2023-02-09T16:00:30.637Z,98441.91
2023-02-09T16:03:01.290Z,98442.84
2023-02-09T16:05:30.970Z,98444.75
2023-02-09T16:08:00.081Z,98444.91
2023-02-09T16:10:30.018Z,98447.53
2023-02-09T16:12:58.602Z,98444.41
2023-02-09T16:15:28.582Z,98457.56
2023-02-09T16:17:56.771Z,98454.19
2023-02-09T16:20:26.371Z,98452.34
2023-02-09T16:22:56.078Z,98455.53
2023-02-09T16:25:26.253Z,98464.81
2023-02-09T16:27:57.689Z,98468.25
2023-02-09T16:30:29.119Z,98470.28
2023-02-09T16:32:57.823Z,98468.50
2023-02-09T16:35:26.711Z,98474.06
2023-02-09T16:37:56.271Z,98485.50
2023-02-09T16:40:27.473Z,98483.44
2023-02-09T16:42:57.120Z,98487.78
2023-02-09T16:45:26.572Z,98490.84
2023-02-09T16:47:59.377Z,98486.38
2023-02-09T16:50:33.008Z,98487.69
2023-02-09T16:53:03.113Z,98501.19
2023-02-09T16:55:32.700Z,98499.25
2023-02-09T16:58:02.467Z,98506.59
2023-02-09T17:00:33.787Z,98509.69
2023-02-09T17:03:07.610Z,98501.34
2023-02-09T17:05:37.226Z,98501.75
2023-02-09T17:08:07.980Z,98512.00
2023-02-09T17:10:37.050Z,98519.34
2023-02-09T17:13:05.765Z,98514.69
2023-02-09T17:15:39.489Z,98517.56
2023-02-09T17:18:10.554Z,98525.53
2023-02-09T17:20:41.565Z,98534.06
2023-02-09T17:23:12.215Z,98530.41
2023-02-09T17:25:40.563Z,98536.66
2023-02-09T17:28:08.994Z,98542.16
2023-02-09T17:30:37.696Z,98548.03
2023-02-09T17:33:08.102Z,98551.13
2023-02-09T17:38:32.772Z,98544.06
2023-02-09T17:41:02.689Z,98545.09
2023-02-09T17:43:31.339Z,98550.53
2023-02-09T17:45:59.939Z,98552.78
2023-02-09T17:48:29.963Z,98552.97
2023-02-09T17:51:02.493Z,98548.88
2023-02-09T17:53:34.711Z,98547.22
2023-02-09T17:56:03.501Z,98546.41
2023-02-09T17:58:32.218Z,98551.66
2023-02-09T18:01:01.301Z,98558.97
2023-02-09T18:03:30.067Z,98559.59
2023-02-09T18:06:01.818Z,98563.06
2023-02-09T18:08:55.580Z,98563.03
2023-02-09T18:11:41.504Z,98563.81
2023-02-09T18:14:11.906Z,98569.50
2023-02-09T18:16:41.419Z,98571.06
2023-02-09T18:19:10.558Z,98564.97
2023-02-09T18:21:43.483Z,98568.63
2023-02-09T18:24:12.586Z,98576.94
2023-02-09T18:26:41.386Z,98569.19
2023-02-09T18:29:10.251Z,98580.94
2023-02-09T18:31:39.222Z,98580.75
2023-02-09T18:34:08.852Z,98575.47
2023-02-09T18:36:37.856Z,98586.22
2023-02-09T18:39:08.362Z,98575.41
2023-02-09T18:41:37.692Z,98585.53
2023-02-09T18:44:06.785Z,98579.00
2023-02-09T18:46:35.506Z,98581.00
2023-02-09T18:49:04.767Z,98581.22
2023-02-09T18:51:34.158Z,98587.81
2023-02-09T18:54:04.547Z,98583.69
2023-02-09T18:56:34.912Z,98587.84
2023-02-09T18:59:03.689Z,98588.50
2023-02-09T19:01:32.460Z,98589.09
2023-02-09T19:04:01.477Z,98607.59
2023-02-09T19:06:30.167Z,98597.03
2023-02-09T19:08:59.054Z,98597.38
2023-02-09T19:11:27.782Z,98599.44
2023-02-09T19:14:15.212Z,98608.34
2023-02-09T19:16:44.670Z,98605.84
2023-02-09T19:19:13.557Z,98613.38
2023-02-09T19:21:42.177Z,98610.00
2023-02-09T19:24:10.798Z,98606.59
2023-02-09T19:26:39.298Z,98611.72
2023-02-09T19:29:09.222Z,98603.16
2023-02-09T19:31:38.623Z,98610.44
2023-02-09T19:34:07.298Z,98612.94
2023-02-09T19:36:36.402Z,98612.50
2023-02-09T19:39:05.121Z,98611.09
2023-02-09T19:41:33.804Z,98609.47
2023-02-09T19:44:02.450Z,98611.25
2023-02-09T19:46:32.923Z,98607.38
2023-02-09T19:49:02.320Z,98595.56
2023-02-09T19:51:31.032Z,98604.31
2023-02-09T19:53:59.715Z,98604.31
2023-02-09T19:56:28.611Z,98610.69
2023-02-09T19:58:57.431Z,98602.59
2023-02-09T20:01:27.091Z,98607.81
2023-02-09T20:03:57.843Z,98617.91
2023-02-09T20:06:30.642Z,98616.66
2023-02-09T20:09:00.541Z,98620.78
2023-02-09T20:11:30.992Z,98626.97
2023-02-09T20:16:54.933Z,98622.25
2023-02-09T20:19:27.958Z,98632.44
2023-02-09T20:21:56.774Z,98625.78
2023-02-09T20:24:25.550Z,98625.97
2023-02-09T20:26:54.221Z,98625.03
2023-02-09T20:29:23.318Z,98622.25
2023-02-09T20:31:51.955Z,98615.69
2023-02-09T20:34:47.248Z,98620.16
2023-02-09T20:37:16.217Z,98632.25
2023-02-09T20:39:45.293Z,98636.69
2023-02-09T20:42:32.625Z,98640.97
2023-02-09T20:45:19.214Z,98651.50
2023-02-09T20:47:48.018Z,98642.22
2023-02-09T20:50:20.156Z,98648.03
2023-02-09T20:52:48.982Z,98651.50
2023-02-09T20:55:22.902Z,98656.78
2023-02-09T20:58:16.972Z,98655.13
2023-02-09T21:00:46.422Z,98658.97
2023-02-09T21:03:15.472Z,98663.75
2023-02-09T21:05:52.350Z,98661.13
2023-02-09T21:08:23.925Z,98660.56
2023-02-09T21:10:57.090Z,98663.84
2023-02-09T21:13:27.164Z,98663.47
2023-02-09T21:15:57.132Z,98660.41
2023-02-09T21:18:27.664Z,98657.28
2023-02-09T21:21:09.268Z,98664.09
2023-02-09T21:26:22.949Z,98662.28
2023-02-09T21:28:56.412Z,98659.53
2023-02-09T21:31:27.423Z,98670.28
2023-02-09T21:33:56.962Z,98657.44
2023-02-09T21:36:27.883Z,98670.88
2023-02-09T21:38:57.074Z,98671.25
2023-02-09T21:41:52.921Z,98665.63
2023-02-09T21:44:21.909Z,98676.13
2023-02-09T21:46:53.989Z,98674.41
2023-02-09T21:49:23.691Z,98679.22
2023-02-09T21:51:54.297Z,98662.72
2023-02-09T21:54:26.544Z,98624.38
2023-02-09T21:56:57.305Z,98636.50
2023-02-09T21:59:26.417Z,98644.91
2023-02-09T22:01:55.681Z,98656.88
2023-02-09T22:04:25.992Z,98657.34
2023-02-09T22:07:04.191Z,98657.78
2023-02-09T22:09:33.348Z,98664.81
2023-02-09T22:12:03.042Z,98657.94
2023-02-09T22:14:32.224Z,98663.50
2023-02-09T22:17:01.667Z,98680.94
2023-02-09T22:19:30.864Z,98688.88
2023-02-09T22:22:04.348Z,98676.44
2023-02-09T22:24:35.137Z,98685.00
2023-02-09T22:27:29.494Z,98687.22
2023-02-09T22:29:58.892Z,98692.25
2023-02-09T22:32:27.892Z,98694.66
2023-02-09T22:34:56.977Z,98689.09
2023-02-09T22:37:36.007Z,98687.38
2023-02-09T22:40:05.510Z,98690.81
2023-02-09T22:42:34.590Z,98670.97
2023-02-09T22:45:04.524Z,98684.13
2023-02-09T22:47:34.854Z,98671.59
2023-02-09T22:50:04.057Z,98675.94
2023-02-09T22:52:34.655Z,98685.16
2023-02-09T22:55:03.687Z,98682.84
2023-02-09T22:57:32.874Z,98685.94
2023-02-09T23:00:01.992Z,98695.38
2023-02-09T23:02:33.538Z,98704.59
2023-02-09T23:05:02.943Z,98698.69
2023-02-09T23:07:33.693Z,98698.84
2023-02-09T23:10:03.183Z,98699.66
2023-02-09T23:12:32.368Z,98698.69
2023-02-09T23:15:01.250Z,98700.47
2023-02-09T23:17:30.681Z,98692.41
2023-02-09T23:20:10.059Z,98693.56
2023-02-09T23:22:40.580Z,98692.13
2023-02-09T23:25:09.825Z,98688.84
2023-02-09T23:27:39.206Z,98702.28
2023-02-09T23:30:09.572Z,98700.31
2023-02-09T23:32:38.462Z,98711.31
2023-02-09T23:35:08.689Z,98719.50
2023-02-09T23:37:41.841Z,98720.34
2023-02-09T23:40:12.565Z,98719.34
2023-02-09T23:42:41.586Z,98724.28
2023-02-09T23:45:11.324Z,98730.84
2023-02-09T23:47:42.058Z,98739.06
2023-02-09T23:50:11.255Z,98740.72
2023-02-09T23:52:47.310Z,98741.06
2023-02-09T23:55:16.592Z,98727.91
2023-02-09T23:57:46.021Z,98738.75
